createdAt,value
2022-10-19T00:00:21.251Z,276
2022-10-19T00:02:30.566Z,276
2022-10-19T00:04:38.525Z,274
2022-10-19T00:06:45.598Z,276
2022-10-19T00:08:52.094Z,276
2022-10-19T00:11:01.893Z,276
2022-10-19T00:13:10.153Z,274
2022-10-19T00:15:17.545Z,278
2022-10-19T00:17:24.570Z,274
2022-10-19T00:19:32.342Z,270
2022-10-19T00:21:41.951Z,272
2022-10-19T00:23:49.312Z,272
2022-10-19T00:25:57.172Z,272
2022-10-19T00:28:05.590Z,272
2022-10-19T00:30:14.210Z,273
2022-10-19T00:32:22.263Z,273
2022-10-19T00:34:30.186Z,273
2022-10-19T00:39:31.389Z,273
2022-10-19T00:41:36.942Z,273
2022-10-19T00:43:42.259Z,273
2022-10-19T00:45:51.566Z,273
2022-10-19T00:47:57.131Z,273
2022-10-19T00:50:04.206Z,273
2022-10-19T00:52:10.521Z,273
2022-10-19T00:54:16.675Z,273
2022-10-19T00:56:22.856Z,273
2022-10-19T00:58:29.405Z,272
2022-10-19T01:00:35.921Z,273
2022-10-19T01:02:42.015Z,273
2022-10-19T01:04:47.497Z,273
2022-10-19T01:06:53.090Z,273
2022-10-19T01:08:58.753Z,273
2022-10-19T01:11:04.550Z,273
2022-10-19T01:13:10.078Z,273
2022-10-19T01:15:15.327Z,273
2022-10-19T01:17:20.900Z,273
2022-10-19T01:19:26.671Z,273
2022-10-19T01:21:31.963Z,273
2022-10-19T01:23:37.268Z,273
2022-10-19T01:25:42.864Z,273
2022-10-19T01:27:48.383Z,273
2022-10-19T01:29:53.819Z,273
2022-10-19T01:31:59.200Z,273
2022-10-19T01:34:05.180Z,273
2022-10-19T01:36:10.425Z,273
2022-10-19T01:38:15.790Z,273
2022-10-19T01:40:21.018Z,273
2022-10-19T01:42:26.774Z,273
2022-10-19T01:44:32.194Z,273
2022-10-19T01:46:37.420Z,272
2022-10-19T01:48:42.767Z,273
2022-10-19T01:50:48.307Z,272
2022-10-19T01:52:53.793Z,272
2022-10-19T01:54:59.574Z,272
2022-10-19T01:57:05.179Z,273
2022-10-19T01:59:10.524Z,273
2022-10-19T02:01:16.177Z,272
2022-10-19T02:03:21.315Z,272
2022-10-19T02:05:26.880Z,272
2022-10-19T02:07:32.300Z,272
2022-10-19T02:09:37.685Z,272
2022-10-19T02:11:49.720Z,267
2022-10-19T02:14:01.411Z,266
2022-10-19T02:16:07.181Z,265
2022-10-19T02:18:12.702Z,262
2022-10-19T02:20:17.938Z,294
2022-10-19T02:22:23.509Z,294
2022-10-19T02:24:28.824Z,294
2022-10-19T02:26:34.296Z,293
2022-10-19T02:28:39.632Z,293
2022-10-19T02:30:45.399Z,286
2022-10-19T02:32:50.778Z,274
2022-10-19T02:34:56.080Z,276
2022-10-19T02:37:01.386Z,276
2022-10-19T02:39:06.639Z,276
2022-10-19T02:41:11.918Z,277
2022-10-19T02:43:17.423Z,273
2022-10-19T02:45:22.707Z,272
2022-10-19T02:47:28.079Z,273
2022-10-19T02:49:33.450Z,273
2022-10-19T02:51:38.927Z,273
2022-10-19T02:53:44.337Z,268
2022-10-19T02:55:49.713Z,266
2022-10-19T02:57:54.746Z,280
2022-10-19T03:00:00.432Z,279
2022-10-19T03:02:05.778Z,280
2022-10-19T03:04:10.996Z,280
2022-10-19T03:06:16.178Z,278
2022-10-19T03:08:22.176Z,279
2022-10-19T03:10:28.048Z,280
2022-10-19T03:12:33.786Z,280
2022-10-19T03:14:39.295Z,279
2022-10-19T03:16:44.872Z,278
2022-10-19T03:18:50.141Z,279
2022-10-19T03:20:58.214Z,279
2022-10-19T03:23:04.223Z,278
2022-10-19T03:25:09.690Z,277
2022-10-19T03:27:14.978Z,279
2022-10-19T03:29:20.874Z,279
2022-10-19T03:31:26.781Z,278
2022-10-19T03:33:32.127Z,278
2022-10-19T03:35:37.481Z,279
2022-10-19T03:37:42.831Z,279
2022-10-19T03:39:48.426Z,280
2022-10-19T03:41:53.474Z,279
2022-10-19T03:46:04.391Z,279
2022-10-19T03:48:10.209Z,277
2022-10-19T03:50:16.352Z,277
2022-10-19T03:52:21.946Z,278
2022-10-19T03:54:30.189Z,276
2022-10-19T03:56:36.249Z,276
2022-10-19T03:58:42.405Z,270
2022-10-19T04:00:48.926Z,281
2022-10-19T04:02:55.079Z,277
2022-10-19T04:05:00.615Z,278
2022-10-19T04:07:06.081Z,276
2022-10-19T04:09:11.361Z,276
2022-10-19T04:11:16.744Z,274
2022-10-19T04:13:22.036Z,273
2022-10-19T04:15:27.640Z,276
2022-10-19T04:17:37.501Z,274
2022-10-19T04:19:42.947Z,274
2022-10-19T04:21:48.608Z,273
2022-10-19T04:23:54.627Z,273
2022-10-19T04:26:00.246Z,273
2022-10-19T04:28:05.817Z,273
2022-10-19T04:30:11.355Z,274
2022-10-19T04:32:16.658Z,274
2022-10-19T04:34:22.205Z,276
2022-10-19T04:36:27.608Z,274
2022-10-19T04:38:33.157Z,274
2022-10-19T04:40:38.907Z,274
2022-10-19T04:42:44.288Z,276
2022-10-19T04:44:50.287Z,274
2022-10-19T04:46:56.678Z,274
2022-10-19T04:49:02.246Z,273
2022-10-19T04:51:08.289Z,273
2022-10-19T04:53:14.333Z,273
2022-10-19T04:55:20.465Z,273
2022-10-19T04:57:26.042Z,273
2022-10-19T04:59:32.226Z,273
2022-10-19T05:01:37.808Z,273
2022-10-19T05:03:48.804Z,273
2022-10-19T05:05:54.965Z,273
2022-10-19T05:08:00.583Z,273
2022-10-19T05:10:06.501Z,273
2022-10-19T05:12:12.680Z,273
2022-10-19T05:14:19.475Z,273
2022-10-19T05:16:26.083Z,273
2022-10-19T05:18:32.602Z,273
2022-10-19T05:20:38.996Z,272
2022-10-19T05:22:44.895Z,273
2022-10-19T05:24:58.034Z,273
2022-10-19T05:27:04.283Z,273
2022-10-19T05:29:10.256Z,273
2022-10-19T05:31:16.683Z,273
2022-10-19T05:33:23.098Z,273
2022-10-19T05:35:29.072Z,273
2022-10-19T05:37:36.445Z,274
2022-10-19T05:39:43.056Z,274
2022-10-19T05:41:49.096Z,273
2022-10-19T05:43:56.045Z,273
2022-10-19T05:46:02.067Z,274
2022-10-19T05:48:08.182Z,274
2022-10-19T05:50:14.432Z,274
2022-10-19T05:52:20.851Z,274
2022-10-19T05:54:31.201Z,274
2022-10-19T05:56:37.402Z,273
2022-10-19T05:58:43.265Z,273
2022-10-19T06:00:49.675Z,273
2022-10-19T06:03:01.237Z,274
2022-10-19T06:05:07.590Z,274
2022-10-19T06:07:13.511Z,274
2022-10-19T06:09:20.270Z,266
2022-10-19T06:11:26.237Z,266
2022-10-19T06:13:31.981Z,265
2022-10-19T06:15:38.030Z,264
2022-10-19T06:17:44.680Z,266
2022-10-19T06:19:51.102Z,265
2022-10-19T06:21:56.823Z,265
2022-10-19T06:24:03.391Z,265
2022-10-19T06:26:09.724Z,264
2022-10-19T06:28:15.879Z,264
2022-10-19T06:30:22.355Z,262
2022-10-19T06:32:28.807Z,268
2022-10-19T06:34:34.702Z,264
2022-10-19T06:36:40.970Z,267
2022-10-19T06:38:47.316Z,267
2022-10-19T06:40:53.237Z,267
2022-10-19T06:42:59.429Z,266
2022-10-19T06:45:05.557Z,265
2022-10-19T06:47:11.703Z,265
2022-10-19T06:49:18.476Z,260
2022-10-19T06:51:24.982Z,264
2022-10-19T06:53:30.678Z,262
2022-10-19T06:55:36.592Z,262
2022-10-19T06:57:42.260Z,264
2022-10-19T06:59:55.580Z,259
2022-10-19T07:02:02.786Z,261
2022-10-19T07:04:09.152Z,262
2022-10-19T07:06:15.965Z,265
2022-10-19T07:08:22.856Z,265
2022-10-19T07:10:28.993Z,264
2022-10-19T07:12:34.721Z,262
2022-10-19T07:14:40.581Z,281
2022-10-19T07:16:46.460Z,276
2022-10-19T07:18:52.686Z,264
2022-10-19T07:20:58.676Z,265
2022-10-19T07:23:04.923Z,264
2022-10-19T07:25:11.539Z,276
2022-10-19T07:27:17.772Z,267
2022-10-19T07:29:24.101Z,262
2022-10-19T07:31:30.469Z,268
2022-10-19T07:33:36.705Z,267
2022-10-19T07:35:42.519Z,268
2022-10-19T07:37:48.474Z,265
2022-10-19T07:39:54.441Z,261
2022-10-19T07:42:00.282Z,261
2022-10-19T07:44:06.028Z,262
2022-10-19T07:46:13.116Z,265
2022-10-19T07:48:19.124Z,265
2022-10-19T07:50:25.231Z,259
2022-10-19T07:52:38.694Z,254
2022-10-19T07:54:44.701Z,261
2022-10-19T07:56:50.604Z,262
2022-10-19T07:58:56.905Z,270
2022-10-19T08:01:04.285Z,266
2022-10-19T08:07:04.261Z,270
2022-10-19T08:09:13.387Z,272
2022-10-19T08:11:52.224Z,273
2022-10-19T08:13:58.070Z,272
2022-10-19T08:16:04.058Z,270
2022-10-19T08:18:09.667Z,272
2022-10-19T08:20:15.601Z,272
2022-10-19T08:22:20.857Z,267
2022-10-19T08:24:27.122Z,267
2022-10-19T08:26:33.577Z,264
2022-10-19T08:28:39.493Z,265
2022-10-19T08:30:46.749Z,268
2022-10-19T08:32:52.746Z,268
2022-10-19T08:34:59.361Z,253
2022-10-19T08:37:40.581Z,270
2022-10-19T08:39:51.454Z,267
2022-10-19T08:41:57.268Z,272
2022-10-19T08:44:07.771Z,266
2022-10-19T08:46:15.872Z,262
2022-10-19T08:48:22.210Z,264
2022-10-19T08:50:27.936Z,261
2022-10-19T08:52:37.092Z,253
2022-10-19T08:54:43.628Z,266
2022-10-19T08:56:54.783Z,265
2022-10-19T08:59:00.641Z,272
2022-10-19T09:01:06.768Z,273
2022-10-19T09:03:13.207Z,272
2022-10-19T09:05:27.756Z,273
2022-10-19T09:07:34.341Z,268
2022-10-19T09:09:40.834Z,268
2022-10-19T09:11:47.177Z,266
2022-10-19T09:14:08.252Z,267
2022-10-19T09:16:14.231Z,262
2022-10-19T09:18:20.801Z,261
2022-10-19T09:20:26.290Z,267
2022-10-19T09:22:31.674Z,266
2022-10-19T09:24:39.196Z,264
2022-10-19T09:26:44.836Z,261
2022-10-19T09:28:51.011Z,265
2022-10-19T09:30:57.237Z,267
2022-10-19T09:33:03.155Z,262
2022-10-19T09:35:08.581Z,270
2022-10-19T09:37:27.984Z,266
2022-10-19T09:39:35.519Z,262
2022-10-19T09:41:41.776Z,266
2022-10-19T09:43:48.175Z,255
2022-10-19T09:45:54.451Z,262
2022-10-19T09:48:14.615Z,265
2022-10-19T09:50:20.307Z,264
2022-10-19T09:52:25.877Z,264
2022-10-19T09:54:31.361Z,264
2022-10-19T09:56:37.237Z,262
2022-10-19T09:58:43.200Z,262
2022-10-19T10:00:49.331Z,265
2022-10-19T10:02:55.661Z,264
2022-10-19T10:05:01.628Z,267
2022-10-19T10:07:07.335Z,259
2022-10-19T10:09:13.581Z,257
2022-10-19T10:11:19.062Z,261
2022-10-19T10:13:28.335Z,260
2022-10-19T10:15:34.727Z,264
2022-10-19T10:17:41.789Z,266
2022-10-19T10:19:47.695Z,264
2022-10-19T10:21:53.796Z,265
2022-10-19T10:23:59.341Z,266
2022-10-19T10:26:04.666Z,264
2022-10-19T10:28:09.992Z,265
2022-10-19T10:30:16.553Z,264
2022-10-19T10:32:22.877Z,255
2022-10-19T10:34:54.943Z,265
2022-10-19T10:37:06.263Z,264
2022-10-19T10:39:12.087Z,267
2022-10-19T10:41:17.970Z,282
2022-10-19T10:43:23.249Z,281
2022-10-19T10:45:28.677Z,280
2022-10-19T10:47:35.537Z,279
2022-10-19T10:49:41.458Z,279
2022-10-19T10:51:54.604Z,278
2022-10-19T10:54:00.243Z,279
2022-10-19T10:56:05.829Z,277
2022-10-19T10:58:11.781Z,274
2022-10-19T11:00:18.020Z,274
2022-10-19T11:04:32.995Z,270
2022-10-19T11:06:45.093Z,273
2022-10-19T11:08:51.506Z,272
2022-10-19T11:10:57.775Z,273
2022-10-19T11:13:03.693Z,273
2022-10-19T11:15:09.577Z,273
2022-10-19T11:17:15.338Z,272
2022-10-19T11:19:21.260Z,273
2022-10-19T11:21:27.141Z,273
2022-10-19T11:23:33.607Z,270
2022-10-19T11:25:39.875Z,272
2022-10-19T11:27:45.755Z,272
2022-10-19T11:29:51.165Z,272
2022-10-19T11:31:56.354Z,272
2022-10-19T11:34:02.631Z,272
2022-10-19T11:36:08.470Z,272
2022-10-19T11:38:29.988Z,272
2022-10-19T11:40:36.007Z,272
2022-10-19T11:42:43.415Z,272
2022-10-19T11:44:49.928Z,272
2022-10-19T11:46:55.877Z,272
2022-10-19T11:49:02.079Z,266
2022-10-19T11:51:23.451Z,268
2022-10-19T11:53:29.277Z,267
2022-10-19T11:55:34.749Z,270
2022-10-19T11:57:41.025Z,265
2022-10-19T11:59:46.824Z,267
2022-10-19T12:01:52.967Z,265
2022-10-19T12:03:58.976Z,267
2022-10-19T12:06:04.483Z,273
2022-10-19T12:08:11.873Z,273
2022-10-19T12:10:18.250Z,266
2022-10-19T12:12:25.213Z,272
2022-10-19T12:14:30.583Z,267
2022-10-19T12:16:36.399Z,266
2022-10-19T12:18:42.033Z,265
2022-10-19T12:20:47.237Z,262
2022-10-19T12:22:52.870Z,280
2022-10-19T12:24:58.779Z,281
2022-10-19T12:27:04.899Z,279
2022-10-19T12:29:11.177Z,273
2022-10-19T12:31:17.224Z,276
2022-10-19T12:33:22.611Z,272
2022-10-19T12:35:29.262Z,270
2022-10-19T12:37:36.317Z,274
2022-10-19T12:39:43.048Z,274
2022-10-19T12:41:49.581Z,274
2022-10-19T12:43:55.679Z,273
2022-10-19T12:46:01.619Z,273
2022-10-19T12:48:07.961Z,268
2022-10-19T12:50:14.312Z,279
2022-10-19T12:52:20.815Z,277
2022-10-19T12:54:26.386Z,278
2022-10-19T12:56:31.815Z,270
2022-10-19T12:58:37.376Z,276
2022-10-19T13:00:46.049Z,273
2022-10-19T13:02:52.656Z,267
2022-10-19T13:04:58.404Z,268
2022-10-19T13:07:04.943Z,268
2022-10-19T13:09:11.493Z,276
2022-10-19T13:11:17.808Z,268
2022-10-19T13:13:24.446Z,266
2022-10-19T13:15:30.153Z,268
2022-10-19T13:17:37.673Z,266
2022-10-19T13:19:44.187Z,270
2022-10-19T13:21:51.132Z,270
2022-10-19T13:23:58.368Z,273
2022-10-19T13:26:04.463Z,276
2022-10-19T13:28:10.739Z,274
2022-10-19T13:30:19.800Z,274
2022-10-19T13:32:27.825Z,266
2022-10-19T13:34:34.365Z,272
2022-10-19T13:36:40.465Z,271
2022-10-19T13:38:46.839Z,271
2022-10-19T13:40:53.830Z,272
2022-10-19T13:43:00.282Z,268
2022-10-19T13:45:06.550Z,266
2022-10-19T13:47:12.579Z,266
2022-10-19T13:49:18.991Z,273
2022-10-19T13:51:25.292Z,273
2022-10-19T13:53:31.736Z,268
2022-10-19T13:55:38.164Z,274
2022-10-19T13:57:44.306Z,274
2022-10-19T13:59:54.253Z,273
2022-10-19T14:02:01.266Z,273
2022-10-19T14:04:10.554Z,272
2022-10-19T14:06:17.177Z,272
2022-10-19T14:08:23.430Z,267
2022-10-19T14:11:00.882Z,267
2022-10-19T14:13:07.556Z,265
2022-10-19T14:15:14.101Z,273
2022-10-19T14:17:21.485Z,276
2022-10-19T14:19:27.981Z,269
2022-10-19T14:21:34.769Z,268
2022-10-19T14:23:41.454Z,273
2022-10-19T14:25:49.752Z,272
2022-10-19T14:27:56.247Z,273
2022-10-19T14:30:03.877Z,272
2022-10-19T14:32:11.682Z,272
2022-10-19T14:34:19.792Z,273
2022-10-19T14:36:27.238Z,272
2022-10-19T14:38:34.051Z,272
2022-10-19T14:40:41.034Z,272
2022-10-19T14:42:48.629Z,272
2022-10-19T14:44:55.748Z,272
2022-10-19T14:47:02.513Z,272
2022-10-19T14:49:08.922Z,272
2022-10-19T14:51:15.827Z,272
2022-10-19T14:53:23.126Z,270
2022-10-19T14:55:30.256Z,270
2022-10-19T14:57:39.810Z,269
2022-10-19T14:59:48.252Z,273
2022-10-19T15:01:55.606Z,272
2022-10-19T15:04:02.892Z,272
2022-10-19T15:06:09.283Z,268
2022-10-19T15:08:16.892Z,268
2022-10-19T15:10:24.217Z,270
2022-10-19T15:12:31.339Z,269
2022-10-19T15:14:39.519Z,270
2022-10-19T15:16:46.820Z,272
2022-10-19T15:21:15.819Z,281
2022-10-19T15:23:21.943Z,283
2022-10-19T15:25:29.473Z,283
2022-10-19T15:27:35.845Z,283
2022-10-19T15:29:42.276Z,282
2022-10-19T15:31:49.223Z,282
2022-10-19T15:33:56.013Z,282
2022-10-19T15:36:03.431Z,283
2022-10-19T15:38:11.006Z,283
2022-10-19T15:40:17.603Z,284
2022-10-19T15:42:25.097Z,284
2022-10-19T15:44:31.479Z,283
2022-10-19T15:48:45.545Z,283
2022-10-19T15:50:57.330Z,283
2022-10-19T15:53:04.039Z,277
2022-10-19T15:55:10.597Z,277
2022-10-19T15:57:17.528Z,279
2022-10-19T15:59:24.089Z,279
2022-10-19T16:01:31.799Z,273
2022-10-19T16:03:38.467Z,273
2022-10-19T16:05:46.781Z,273
2022-10-19T16:07:54.978Z,273
2022-10-19T16:10:02.734Z,272
2022-10-19T16:12:09.642Z,272
2022-10-19T16:16:24.527Z,288
2022-10-19T16:18:32.377Z,283
2022-10-19T16:20:40.119Z,283
2022-10-19T16:22:48.568Z,283
2022-10-19T16:24:55.902Z,283
2022-10-19T16:27:04.183Z,283
2022-10-19T16:29:12.337Z,282
2022-10-19T16:31:19.206Z,283
2022-10-19T16:33:26.865Z,283
2022-10-19T16:35:34.928Z,283
2022-10-19T16:37:42.309Z,283
2022-10-19T16:39:51.613Z,283
2022-10-19T16:42:00.054Z,283
2022-10-19T16:44:07.560Z,283
2022-10-19T16:46:15.830Z,283
2022-10-19T16:48:26.993Z,283
2022-10-19T16:50:35.650Z,283
2022-10-19T16:52:45.564Z,283
2022-10-19T16:54:52.738Z,282
2022-10-19T16:57:09.862Z,282
2022-10-19T16:59:24.513Z,283
2022-10-19T17:01:31.791Z,283
2022-10-19T17:03:41.102Z,283
2022-10-19T17:05:48.668Z,283
2022-10-19T17:07:56.785Z,282
2022-10-19T17:10:05.053Z,280
2022-10-19T17:12:16.485Z,283
2022-10-19T17:14:24.446Z,282
2022-10-19T17:16:33.769Z,282
2022-10-19T17:18:46.274Z,282
2022-10-19T17:20:57.667Z,282
2022-10-19T17:23:09.879Z,283
2022-10-19T17:25:21.942Z,283
2022-10-19T17:27:34.331Z,283
2022-10-19T17:29:47.433Z,283
2022-10-19T17:31:57.944Z,283
2022-10-19T17:34:13.226Z,283
2022-10-19T17:36:24.246Z,283
2022-10-19T17:38:34.606Z,283
2022-10-19T17:40:44.013Z,283
2022-10-19T17:42:54.467Z,283
2022-10-19T17:45:07.727Z,283
2022-10-19T17:47:20.799Z,283
2022-10-19T17:49:39.751Z,283
2022-10-19T17:51:50.344Z,283
2022-10-19T17:54:12.123Z,283
2022-10-19T17:56:24.017Z,283
2022-10-19T17:58:42.390Z,283
2022-10-19T18:00:52.637Z,283
2022-10-19T18:03:06.342Z,283
2022-10-19T18:05:22.650Z,283
2022-10-19T18:07:34.055Z,283
2022-10-19T18:10:00.190Z,283
2022-10-19T18:12:12.589Z,283
2022-10-19T18:14:22.393Z,283
2022-10-19T18:16:32.650Z,283
2022-10-19T18:18:44.153Z,283
2022-10-19T18:21:00.010Z,283
2022-10-19T18:23:09.940Z,283
2022-10-19T18:25:54.125Z,283
2022-10-19T18:28:08.740Z,283
2022-10-19T18:30:18.344Z,283
2022-10-19T18:32:29.722Z,283
2022-10-19T18:34:43.381Z,283
2022-10-19T18:36:54.478Z,283
2022-10-19T18:39:05.909Z,282
2022-10-19T18:41:25.520Z,283
2022-10-19T18:43:39.890Z,283
2022-10-19T18:45:51.375Z,282
2022-10-19T18:48:12.770Z,282
2022-10-19T18:50:27.475Z,282
2022-10-19T18:52:39.240Z,282
2022-10-19T18:54:52.410Z,283
2022-10-19T18:57:11.466Z,283
2022-10-19T18:59:23.925Z,283
2022-10-19T19:01:33.610Z,283
2022-10-19T19:04:06.330Z,283
2022-10-19T19:06:21.539Z,281
2022-10-19T19:08:35.318Z,282
2022-10-19T19:10:48.375Z,282
2022-10-19T19:13:05.393Z,282
2022-10-19T19:15:21.675Z,282
2022-10-19T19:17:37.887Z,282
2022-10-19T19:19:54.483Z,283
2022-10-19T19:22:12.848Z,282
2022-10-19T19:24:26.386Z,282
2022-10-19T19:26:41.614Z,282
2022-10-19T19:28:56.593Z,282
2022-10-19T19:31:12.397Z,282
2022-10-19T19:33:22.753Z,278
2022-10-19T19:35:30.533Z,278
2022-10-19T19:37:48.705Z,278
2022-10-19T19:39:57.843Z,278
2022-10-19T19:42:08.845Z,278
2022-10-19T19:44:22.255Z,278
2022-10-19T19:46:35.778Z,278
2022-10-19T19:48:45.655Z,278
2022-10-19T19:50:58.745Z,278
2022-10-19T19:53:14.824Z,278
2022-10-19T19:55:26.026Z,278
2022-10-19T19:57:36.340Z,278
2022-10-19T19:59:47.968Z,277
2022-10-19T20:02:00.327Z,276
2022-10-19T20:04:11.680Z,276
2022-10-19T20:06:28.181Z,276
2022-10-19T20:08:37.393Z,276
2022-10-19T20:10:56.513Z,277
2022-10-19T20:13:06.785Z,277
2022-10-19T20:15:15.800Z,276
2022-10-19T20:17:24.195Z,277
2022-10-19T20:19:33.003Z,277
2022-10-19T20:21:44.646Z,277
2022-10-19T20:23:55.934Z,276
2022-10-19T20:26:03.988Z,277
2022-10-19T20:28:12.904Z,277
2022-10-19T20:30:21.876Z,277
2022-10-19T20:32:30.735Z,277
2022-10-19T20:34:41.485Z,277
2022-10-19T20:36:49.666Z,277
2022-10-19T20:38:58.340Z,277
2022-10-19T20:41:09.418Z,277
2022-10-19T20:43:18.264Z,277
2022-10-19T20:45:31.423Z,277
2022-10-19T20:47:38.482Z,276
2022-10-19T20:49:46.288Z,276
2022-10-19T20:51:54.696Z,273
2022-10-19T20:54:02.602Z,273
2022-10-19T20:56:09.915Z,274
2022-10-19T20:58:16.000Z,274
2022-10-19T21:00:25.059Z,273
2022-10-19T21:02:31.673Z,274
2022-10-19T21:04:37.854Z,273
2022-10-19T21:06:43.543Z,274
2022-10-19T21:08:49.310Z,274
2022-10-19T21:10:56.011Z,267
2022-10-19T21:13:02.475Z,267
2022-10-19T21:15:08.763Z,268
2022-10-19T21:17:15.292Z,267
2022-10-19T21:19:20.694Z,267
2022-10-19T21:21:25.842Z,267
2022-10-19T21:23:30.829Z,268
2022-10-19T21:25:36.017Z,268
2022-10-19T21:27:41.993Z,264
2022-10-19T21:29:46.976Z,266
2022-10-19T21:31:52.326Z,267
2022-10-19T21:33:57.458Z,268
2022-10-19T21:36:02.838Z,264
2022-10-19T21:38:07.924Z,265
2022-10-19T21:40:13.753Z,272
2022-10-19T21:42:19.100Z,274
2022-10-19T21:44:24.550Z,274
2022-10-19T21:46:29.997Z,272
2022-10-19T21:48:35.519Z,273
2022-10-19T21:50:41.147Z,267
2022-10-19T21:52:46.368Z,267
2022-10-19T21:54:52.627Z,268
2022-10-19T21:56:57.984Z,268
2022-10-19T21:59:03.159Z,268
2022-10-19T22:01:08.449Z,268
2022-10-19T22:05:20.049Z,267
2022-10-19T22:07:25.177Z,266
2022-10-19T22:09:30.352Z,277
2022-10-19T22:11:35.908Z,280
2022-10-19T22:13:41.206Z,281
2022-10-19T22:15:46.508Z,281
2022-10-19T22:17:51.706Z,282
2022-10-19T22:19:56.952Z,282
2022-10-19T22:22:02.160Z,282
2022-10-19T22:24:07.324Z,282
2022-10-19T22:26:12.656Z,282
2022-10-19T22:28:21.337Z,282
2022-10-19T22:30:26.675Z,282
2022-10-19T22:32:32.051Z,282
2022-10-19T22:34:37.586Z,282
2022-10-19T22:36:42.984Z,282
2022-10-19T22:38:48.408Z,282
2022-10-19T22:40:53.818Z,282
2022-10-19T22:42:59.976Z,282
2022-10-19T22:45:10.946Z,282
2022-10-19T22:47:16.216Z,282
2022-10-19T22:49:21.255Z,282
2022-10-19T22:51:26.208Z,282
2022-10-19T22:53:31.933Z,282
2022-10-19T22:55:37.094Z,282
2022-10-19T22:57:43.427Z,282
2022-10-19T22:59:48.772Z,282
2022-10-19T23:01:54.100Z,282
2022-10-19T23:03:59.579Z,282
2022-10-19T23:06:04.610Z,282
2022-10-19T23:08:10.103Z,282
2022-10-19T23:10:15.362Z,282
2022-10-19T23:12:20.628Z,282
2022-10-19T23:14:25.725Z,282
2022-10-19T23:16:30.863Z,282
2022-10-19T23:18:36.242Z,282
2022-10-19T23:20:41.442Z,282
2022-10-19T23:22:46.445Z,282
2022-10-19T23:24:51.739Z,282
2022-10-19T23:26:56.717Z,282
2022-10-19T23:29:01.968Z,282
2022-10-19T23:31:07.245Z,282
2022-10-19T23:33:12.797Z,282
2022-10-19T23:35:21.894Z,282
2022-10-19T23:37:27.053Z,282
2022-10-19T23:39:32.351Z,282
2022-10-19T23:41:37.626Z,282
2022-10-19T23:43:43.443Z,282
2022-10-19T23:45:48.915Z,282
2022-10-19T23:47:54.081Z,282
2022-10-19T23:49:59.227Z,282
2022-10-19T23:52:04.180Z,282
2022-10-19T23:54:09.577Z,282
2022-10-19T23:56:14.907Z,282
2022-10-19T23:58:20.050Z,282
